sensor_id;sensor_type;location;lat;lon;timestamp;pressure;altitude;pressure_sealevel;temperature;humidity
6032;BME280;3044;43.232;27.972;2024-03-02T00:01:36;45228.06;;;-143.84;92.06
6032;BME280;3044;43.232;27.972;2024-03-02T00:04:04;45210.94;;;-143.84;91.72
6032;BME280;3044;43.232;27.972;2024-03-02T00:06:34;45226.16;;;-143.84;91.67
6032;BME280;3044;43.232;27.972;2024-03-02T00:09:01;45189.97;;;-143.84;91.70
6032;BME280;3044;43.232;27.972;2024-03-02T00:11:29;45222.34;;;-143.84;91.65
6032;BME280;3044;43.232;27.972;2024-03-02T00:13:56;45237.59;;;-143.84;91.46
6032;BME280;3044;43.232;27.972;2024-03-02T00:16:24;45209.03;;;-143.84;91.46
6032;BME280;3044;43.232;27.972;2024-03-02T00:18:56;45218.53;;;-143.84;91.55
6032;BME280;3044;43.232;27.972;2024-03-02T00:21:26;45235.69;;;-143.84;91.49
6032;BME280;3044;43.232;27.972;2024-03-02T00:23:55;45209.03;;;-143.84;91.38
6032;BME280;3044;43.232;27.972;2024-03-02T00:26:23;45231.88;;;-143.84;91.41
6032;BME280;3044;43.232;27.972;2024-03-02T00:28:54;45220.44;;;-143.84;91.50
6032;BME280;3044;43.232;27.972;2024-03-02T00:31:22;45228.06;;;-143.84;91.15
6032;BME280;3044;43.232;27.972;2024-03-02T00:33:50;45264.25;;;-143.84;91.30
6032;BME280;3044;43.232;27.972;2024-03-02T00:36:22;45209.03;;;-143.84;91.21
6032;BME280;3044;43.232;27.972;2024-03-02T00:38:52;45212.84;;;-143.84;91.42
6032;BME280;3044;43.232;27.972;2024-03-02T00:41:23;45205.22;;;-143.84;91.26
6032;BME280;3044;43.232;27.972;2024-03-02T00:44:09;45218.53;;;-143.84;91.16
6032;BME280;3044;43.232;27.972;2024-03-02T00:46:38;45203.31;;;-143.84;91.36
6032;BME280;3044;43.232;27.972;2024-03-02T00:49:11;45228.06;;;-143.84;91.09
6032;BME280;3044;43.232;27.972;2024-03-02T00:51:39;45224.25;;;-143.84;91.15
6032;BME280;3044;43.232;27.972;2024-03-02T00:54:08;45207.13;;;-143.84;91.06
6032;BME280;3044;43.232;27.972;2024-03-02T00:56:37;45212.84;;;-143.84;91.17
6032;BME280;3044;43.232;27.972;2024-03-02T00:59:04;45222.34;;;-143.84;91.17
6032;BME280;3044;43.232;27.972;2024-03-02T01:01:32;45228.06;;;-143.84;91.36
6032;BME280;3044;43.232;27.972;2024-03-02T01:03:59;45256.63;;;-143.84;91.68
6032;BME280;3044;43.232;27.972;2024-03-02T01:06:27;45220.44;;;-143.84;91.84
6032;BME280;3044;43.232;27.972;2024-03-02T01:08:54;45212.84;;;-143.84;91.46
6032;BME280;3044;43.232;27.972;2024-03-02T01:11:21;45218.53;;;-143.84;91.44
6032;BME280;3044;43.232;27.972;2024-03-02T01:13:50;45203.31;;;-143.84;91.66
6032;BME280;3044;43.232;27.972;2024-03-02T01:16:18;45197.59;;;-143.84;92.05
6032;BME280;3044;43.232;27.972;2024-03-02T01:18:45;45233.78;;;-143.84;92.06
6032;BME280;3044;43.232;27.972;2024-03-02T01:21:13;45245.19;;;-143.84;92.01
6032;BME280;3044;43.232;27.972;2024-03-02T01:23:40;45180.47;;;-143.84;92.38
6032;BME280;3044;43.232;27.972;2024-03-02T01:26:07;45231.88;;;-143.84;92.64
6032;BME280;3044;43.232;27.972;2024-03-02T01:28:34;45220.44;;;-143.84;92.63
6032;BME280;3044;43.232;27.972;2024-03-02T01:31:03;45241.41;;;-143.84;92.71
6032;BME280;3044;43.232;27.972;2024-03-02T01:33:30;45228.06;;;-143.84;92.63
6032;BME280;3044;43.232;27.972;2024-03-02T01:35:57;45224.25;;;-143.84;92.98
6032;BME280;3044;43.232;27.972;2024-03-02T01:38:24;45210.94;;;-143.84;93.54
6032;BME280;3044;43.232;27.972;2024-03-02T01:40:51;45210.94;;;-143.84;93.74
6032;BME280;3044;43.232;27.972;2024-03-02T01:43:18;45201.41;;;-143.84;93.87
6032;BME280;3044;43.232;27.972;2024-03-02T01:45:46;45229.97;;;-143.84;94.31
6032;BME280;3044;43.232;27.972;2024-03-02T01:48:14;45186.16;;;-143.84;94.44
6032;BME280;3044;43.232;27.972;2024-03-02T01:50:41;45220.44;;;-143.84;94.63
6032;BME280;3044;43.232;27.972;2024-03-02T01:53:09;45224.25;;;-143.84;94.65
6032;BME280;3044;43.232;27.972;2024-03-02T01:55:36;45203.31;;;-143.84;94.70
6032;BME280;3044;43.232;27.972;2024-03-02T01:58:03;45226.16;;;-143.84;94.72
6032;BME280;3044;43.232;27.972;2024-03-02T02:00:30;45235.69;;;-143.84;94.90
6032;BME280;3044;43.232;27.972;2024-03-02T02:02:58;45214.72;;;-143.84;94.96
6032;BME280;3044;43.232;27.972;2024-03-02T02:05:26;45237.59;;;-143.84;95.22
6032;BME280;3044;43.232;27.972;2024-03-02T02:07:53;45247.09;;;-143.84;95.43
6032;BME280;3044;43.232;27.972;2024-03-02T02:10:20;45228.06;;;-143.84;95.91
6032;BME280;3044;43.232;27.972;2024-03-02T02:12:48;45258.53;;;-143.84;96.19
6032;BME280;3044;43.232;27.972;2024-03-02T02:15:25;45228.06;;;-143.84;96.11
6032;BME280;3044;43.232;27.972;2024-03-02T02:17:52;45199.50;;;-143.84;96.51
6032;BME280;3044;43.232;27.972;2024-03-02T02:20:20;45241.41;;;-143.84;96.50
6032;BME280;3044;43.232;27.972;2024-03-02T02:22:56;45210.94;;;-143.84;96.49
6032;BME280;3044;43.232;27.972;2024-03-02T02:25:23;45237.59;;;-143.84;96.83
6032;BME280;3044;43.232;27.972;2024-03-02T02:27:51;45218.53;;;-143.84;97.16
6032;BME280;3044;43.232;27.972;2024-03-02T02:30:22;45224.25;;;-143.84;97.55
6032;BME280;3044;43.232;27.972;2024-03-02T02:32:49;45239.50;;;-143.84;97.97
6032;BME280;3044;43.232;27.972;2024-03-02T02:35:16;45216.63;;;-143.84;98.06
6032;BME280;3044;43.232;27.972;2024-03-02T02:37:44;45193.78;;;-143.84;98.24
6032;BME280;3044;43.232;27.972;2024-03-02T02:40:14;45226.16;;;-143.84;98.39
6032;BME280;3044;43.232;27.972;2024-03-02T02:42:41;45207.13;;;-143.84;98.42
6032;BME280;3044;43.232;27.972;2024-03-02T02:45:08;45212.84;;;-143.84;98.49
6032;BME280;3044;43.232;27.972;2024-03-02T02:47:36;45245.19;;;-143.84;98.79
6032;BME280;3044;43.232;27.972;2024-03-02T02:50:04;45205.22;;;-143.84;98.58
6032;BME280;3044;43.232;27.972;2024-03-02T02:52:32;45209.03;;;-143.84;98.68
6032;BME280;3044;43.232;27.972;2024-03-02T02:55:03;45199.50;;;-143.84;98.96
6032;BME280;3044;43.232;27.972;2024-03-02T02:57:32;45188.06;;;-143.84;98.79
6032;BME280;3044;43.232;27.972;2024-03-02T03:00:02;45214.72;;;-143.84;98.52
6032;BME280;3044;43.232;27.972;2024-03-02T03:02:36;45203.31;;;-143.84;98.46
6032;BME280;3044;43.232;27.972;2024-03-02T03:05:04;45235.69;;;-143.84;98.14
6032;BME280;3044;43.232;27.972;2024-03-02T03:07:32;45197.59;;;-143.84;97.42
6032;BME280;3044;43.232;27.972;2024-03-02T03:10:00;45212.84;;;-143.84;97.36
6032;BME280;3044;43.232;27.972;2024-03-02T03:12:27;45224.25;;;-143.84;97.04
6032;BME280;3044;43.232;27.972;2024-03-02T03:14:55;45220.44;;;-143.84;96.53
6032;BME280;3044;43.232;27.972;2024-03-02T03:17:23;45243.31;;;-143.84;96.44
6032;BME280;3044;43.232;27.972;2024-03-02T03:19:50;45218.53;;;-143.84;96.53
6032;BME280;3044;43.232;27.972;2024-03-02T03:22:17;45224.25;;;-143.84;96.31
6032;BME280;3044;43.232;27.972;2024-03-02T03:24:44;45210.94;;;-143.84;95.86
6032;BME280;3044;43.232;27.972;2024-03-02T03:27:11;45188.06;;;-143.84;95.81
6032;BME280;3044;43.232;27.972;2024-03-02T03:29:39;45212.84;;;-143.84;95.76
6032;BME280;3044;43.232;27.972;2024-03-02T03:32:07;45214.72;;;-143.84;95.90
6032;BME280;3044;43.232;27.972;2024-03-02T03:34:34;45216.63;;;-143.84;95.46
6032;BME280;3044;43.232;27.972;2024-03-02T03:37:02;45214.72;;;-143.84;95.31
6032;BME280;3044;43.232;27.972;2024-03-02T03:39:29;45250.91;;;-143.84;95.47
6032;BME280;3044;43.232;27.972;2024-03-02T03:41:56;45193.78;;;-143.84;95.75
6032;BME280;3044;43.232;27.972;2024-03-02T03:44:23;45210.94;;;-143.84;95.50
6032;BME280;3044;43.232;27.972;2024-03-02T03:46:50;45214.72;;;-143.84;95.24
6032;BME280;3044;43.232;27.972;2024-03-02T03:49:19;45228.06;;;-143.84;95.08
6032;BME280;3044;43.232;27.972;2024-03-02T03:51:46;45224.25;;;-143.84;95.19
6032;BME280;3044;43.232;27.972;2024-03-02T03:54:13;45235.69;;;-143.84;95.25
6032;BME280;3044;43.232;27.972;2024-03-02T03:56:40;45188.06;;;-143.84;95.15
6032;BME280;3044;43.232;27.972;2024-03-02T03:59:08;45224.25;;;-143.84;95.28
6032;BME280;3044;43.232;27.972;2024-03-02T04:01:35;45226.16;;;-143.84;95.16
6032;BME280;3044;43.232;27.972;2024-03-02T04:04:02;45209.03;;;-143.84;95.33
6032;BME280;3044;43.232;27.972;2024-03-02T04:06:31;45231.88;;;-143.84;95.25
6032;BME280;3044;43.232;27.972;2024-03-02T04:08:58;45235.69;;;-143.84;95.59
6032;BME280;3044;43.232;27.972;2024-03-02T04:11:25;45214.72;;;-143.84;94.99
6032;BME280;3044;43.232;27.972;2024-03-02T04:13:52;45226.16;;;-143.84;94.80
6032;BME280;3044;43.232;27.972;2024-03-02T04:16:19;45224.25;;;-143.84;94.61
6032;BME280;3044;43.232;27.972;2024-03-02T04:18:46;45224.25;;;-143.84;94.62
6032;BME280;3044;43.232;27.972;2024-03-02T04:21:13;45228.06;;;-143.84;94.48
6032;BME280;3044;43.232;27.972;2024-03-02T04:23:42;45241.41;;;-143.84;94.26
6032;BME280;3044;43.232;27.972;2024-03-02T04:26:09;45237.59;;;-143.84;94.08
6032;BME280;3044;43.232;27.972;2024-03-02T04:28:36;45209.03;;;-143.84;94.02
6032;BME280;3044;43.232;27.972;2024-03-02T04:31:03;45216.63;;;-143.84;93.84
6032;BME280;3044;43.232;27.972;2024-03-02T04:33:30;45231.88;;;-143.84;93.76
6032;BME280;3044;43.232;27.972;2024-03-02T04:35:57;45220.44;;;-143.84;93.61
6032;BME280;3044;43.232;27.972;2024-03-02T04:38:24;45207.13;;;-143.84;93.74
6032;BME280;3044;43.232;27.972;2024-03-02T04:40:53;45239.50;;;-143.84;93.68
6032;BME280;3044;43.232;27.972;2024-03-02T04:43:20;45224.25;;;-143.84;93.59
6032;BME280;3044;43.232;27.972;2024-03-02T04:45:48;45207.13;;;-143.84;93.71
6032;BME280;3044;43.232;27.972;2024-03-02T04:48:15;45245.19;;;-143.84;93.61
6032;BME280;3044;43.232;27.972;2024-03-02T04:50:42;45212.84;;;-143.84;93.63
6032;BME280;3044;43.232;27.972;2024-03-02T04:53:09;45193.78;;;-143.84;93.68
6032;BME280;3044;43.232;27.972;2024-03-02T04:55:36;45243.31;;;-143.84;93.69
6032;BME280;3044;43.232;27.972;2024-03-02T04:58:18;45226.16;;;-143.84;94.01
6032;BME280;3044;43.232;27.972;2024-03-02T05:00:45;45207.13;;;-143.84;94.14
6032;BME280;3044;43.232;27.972;2024-03-02T05:03:13;45224.25;;;-143.84;93.95
6032;BME280;3044;43.232;27.972;2024-03-02T05:05:40;45235.69;;;-143.84;93.81
6032;BME280;3044;43.232;27.972;2024-03-02T05:08:07;45224.25;;;-143.84;93.89
6032;BME280;3044;43.232;27.972;2024-03-02T05:10:34;45241.41;;;-143.84;94.20
6032;BME280;3044;43.232;27.972;2024-03-02T05:13:02;45245.19;;;-143.84;94.17
6032;BME280;3044;43.232;27.972;2024-03-02T05:15:29;45209.03;;;-143.84;94.07
6032;BME280;3044;43.232;27.972;2024-03-02T05:17:57;45222.34;;;-143.84;93.96
6032;BME280;3044;43.232;27.972;2024-03-02T05:20:25;45216.63;;;-143.84;94.45
6032;BME280;3044;43.232;27.972;2024-03-02T05:22:52;45241.41;;;-143.84;94.38
6032;BME280;3044;43.232;27.972;2024-03-02T05:25:19;45209.03;;;-143.84;94.42
6032;BME280;3044;43.232;27.972;2024-03-02T05:27:46;45209.03;;;-143.84;94.59
6032;BME280;3044;43.232;27.972;2024-03-02T05:30:14;45216.63;;;-143.84;94.42
6032;BME280;3044;43.232;27.972;2024-03-02T05:32:42;45222.34;;;-143.84;94.41
6032;BME280;3044;43.232;27.972;2024-03-02T05:35:09;45254.72;;;-143.84;94.22
6032;BME280;3044;43.232;27.972;2024-03-02T05:37:38;45216.63;;;-143.84;94.25
6032;BME280;3044;43.232;27.972;2024-03-02T05:40:06;45220.44;;;-143.84;94.07
6032;BME280;3044;43.232;27.972;2024-03-02T05:42:34;45222.34;;;-143.84;93.96
6032;BME280;3044;43.232;27.972;2024-03-02T05:45:01;45250.91;;;-143.84;93.82
6032;BME280;3044;43.232;27.972;2024-03-02T05:47:28;45201.41;;;-143.84;93.56
6032;BME280;3044;43.232;27.972;2024-03-02T05:49:56;45245.19;;;-143.84;93.53
6032;BME280;3044;43.232;27.972;2024-03-02T05:52:23;45224.25;;;-143.84;93.85
6032;BME280;3044;43.232;27.972;2024-03-02T05:54:51;45209.03;;;-143.84;93.92
6032;BME280;3044;43.232;27.972;2024-03-02T05:57:18;45184.25;;;-143.84;93.75
6032;BME280;3044;43.232;27.972;2024-03-02T05:59:59;45224.25;;;-143.84;93.68
6032;BME280;3044;43.232;27.972;2024-03-02T06:02:26;45235.69;;;-143.84;93.48
6032;BME280;3044;43.232;27.972;2024-03-02T06:04:55;45189.97;;;-143.84;93.31
6032;BME280;3044;43.232;27.972;2024-03-02T06:07:23;45207.13;;;-143.84;93.18
6032;BME280;3044;43.232;27.972;2024-03-02T06:09:50;45249.00;;;-143.84;93.30
6032;BME280;3044;43.232;27.972;2024-03-02T06:12:18;45216.63;;;-143.84;92.77
6032;BME280;3044;43.232;27.972;2024-03-02T06:14:45;45229.97;;;-143.84;92.29
6032;BME280;3044;43.232;27.972;2024-03-02T06:17:12;45220.44;;;-143.84;92.23
6032;BME280;3044;43.232;27.972;2024-03-02T06:19:39;45201.41;;;-143.84;91.94
6032;BME280;3044;43.232;27.972;2024-03-02T06:22:08;45214.72;;;-143.84;91.63
6032;BME280;3044;43.232;27.972;2024-03-02T06:24:36;45228.06;;;-143.84;91.55
6032;BME280;3044;43.232;27.972;2024-03-02T06:27:03;45222.34;;;-143.84;90.87
6032;BME280;3044;43.232;27.972;2024-03-02T06:29:32;45218.53;;;-143.84;90.75
6032;BME280;3044;43.232;27.972;2024-03-02T06:31:59;45218.53;;;-143.84;90.63
6032;BME280;3044;43.232;27.972;2024-03-02T06:34:26;45228.06;;;-143.84;90.55
6032;BME280;3044;43.232;27.972;2024-03-02T06:36:54;45214.72;;;-143.84;90.21
6032;BME280;3044;43.232;27.972;2024-03-02T06:39:22;45228.06;;;-143.84;90.16
6032;BME280;3044;43.232;27.972;2024-03-02T06:41:50;45233.78;;;-143.84;90.41
6032;BME280;3044;43.232;27.972;2024-03-02T06:44:17;45210.94;;;-143.84;90.01
6032;BME280;3044;43.232;27.972;2024-03-02T06:46:44;45201.41;;;-143.84;89.86
6032;BME280;3044;43.232;27.972;2024-03-02T06:49:11;45214.72;;;-143.84;89.80
6032;BME280;3044;43.232;27.972;2024-03-02T06:51:38;45203.31;;;-143.84;89.61
6032;BME280;3044;43.232;27.972;2024-03-02T06:54:05;45220.44;;;-143.84;89.21
6032;BME280;3044;43.232;27.972;2024-03-02T06:56:34;45237.59;;;-143.84;88.84
6032;BME280;3044;43.232;27.972;2024-03-02T06:59:01;45212.84;;;-143.84;88.81
6032;BME280;3044;43.232;27.972;2024-03-02T07:01:28;45226.16;;;-143.84;88.10
6032;BME280;3044;43.232;27.972;2024-03-02T07:03:55;45216.63;;;-143.84;87.93
6032;BME280;3044;43.232;27.972;2024-03-02T07:06:22;45201.41;;;-143.84;87.10
6032;BME280;3044;43.232;27.972;2024-03-02T07:08:49;45218.53;;;-143.84;86.63
6032;BME280;3044;43.232;27.972;2024-03-02T07:11:16;45224.25;;;-143.84;86.89
6032;BME280;3044;43.232;27.972;2024-03-02T07:13:45;45224.25;;;-143.84;86.51
6032;BME280;3044;43.232;27.972;2024-03-02T07:16:12;45197.59;;;-143.84;86.03
6032;BME280;3044;43.232;27.972;2024-03-02T07:18:58;45235.69;;;-143.84;85.94
6032;BME280;3044;43.232;27.972;2024-03-02T07:21:27;45226.16;;;-143.84;85.85
6032;BME280;3044;43.232;27.972;2024-03-02T07:23:54;45212.84;;;-143.84;85.78
6032;BME280;3044;43.232;27.972;2024-03-02T07:26:21;45201.41;;;-143.84;85.00
6032;BME280;3044;43.232;27.972;2024-03-02T07:28:50;45212.84;;;-143.84;85.04
6032;BME280;3044;43.232;27.972;2024-03-02T07:31:17;45228.06;;;-143.84;85.13
6032;BME280;3044;43.232;27.972;2024-03-02T07:33:45;45199.50;;;-143.84;84.92
6032;BME280;3044;43.232;27.972;2024-03-02T07:36:13;45214.72;;;-143.84;84.23
6032;BME280;3044;43.232;27.972;2024-03-02T07:38:40;45193.78;;;-143.84;84.27
6032;BME280;3044;43.232;27.972;2024-03-02T07:41:08;45218.53;;;-143.84;84.02
6032;BME280;3044;43.232;27.972;2024-03-02T07:43:36;45216.63;;;-143.84;83.84
6032;BME280;3044;43.232;27.972;2024-03-02T07:46:05;45189.97;;;-143.84;83.67
6032;BME280;3044;43.232;27.972;2024-03-02T07:48:32;45195.69;;;-143.84;83.64
6032;BME280;3044;43.232;27.972;2024-03-02T07:51:00;45235.69;;;-143.84;83.98
6032;BME280;3044;43.232;27.972;2024-03-02T07:53:28;45207.13;;;-143.84;83.82
6032;BME280;3044;43.232;27.972;2024-03-02T07:55:55;45195.69;;;-143.84;83.89
6032;BME280;3044;43.232;27.972;2024-03-02T07:58:27;45207.13;;;-143.84;83.98
6032;BME280;3044;43.232;27.972;2024-03-02T08:00:54;45193.78;;;-143.84;84.05
6032;BME280;3044;43.232;27.972;2024-03-02T08:03:23;45199.50;;;-143.84;83.79
6032;BME280;3044;43.232;27.972;2024-03-02T08:05:50;45193.78;;;-143.84;83.98
6032;BME280;3044;43.232;27.972;2024-03-02T08:08:17;45214.72;;;-143.84;83.60
6032;BME280;3044;43.232;27.972;2024-03-02T08:10:44;45197.59;;;-143.84;83.77
6032;BME280;3044;43.232;27.972;2024-03-02T08:13:11;45222.34;;;-143.84;83.52
6032;BME280;3044;43.232;27.972;2024-03-02T08:15:39;45197.59;;;-143.84;83.75
6032;BME280;3044;43.232;27.972;2024-03-02T08:18:07;45205.22;;;-143.84;83.57
6032;BME280;3044;43.232;27.972;2024-03-02T08:20:35;45205.22;;;-143.84;84.13
6032;BME280;3044;43.232;27.972;2024-03-02T08:23:03;45216.63;;;-143.84;84.02
6032;BME280;3044;43.232;27.972;2024-03-02T08:25:30;45205.22;;;-143.84;84.36
6032;BME280;3044;43.232;27.972;2024-03-02T08:27:58;45209.03;;;-143.84;84.71
6032;BME280;3044;43.232;27.972;2024-03-02T08:30:25;45201.41;;;-143.84;84.71
6032;BME280;3044;43.232;27.972;2024-03-02T08:32:52;45224.25;;;-143.84;84.03
6032;BME280;3044;43.232;27.972;2024-03-02T08:35:19;45207.13;;;-143.84;84.05
6032;BME280;3044;43.232;27.972;2024-03-02T08:37:49;45191.88;;;-143.84;83.72
6032;BME280;3044;43.232;27.972;2024-03-02T08:40:16;45191.88;;;-143.84;83.17
6032;BME280;3044;43.232;27.972;2024-03-02T08:42:44;45209.03;;;-143.84;82.95
6032;BME280;3044;43.232;27.972;2024-03-02T08:45:11;45195.69;;;-143.84;82.72
6032;BME280;3044;43.232;27.972;2024-03-02T08:47:39;45205.22;;;-143.84;81.27
6032;BME280;3044;43.232;27.972;2024-03-02T08:50:07;45191.88;;;-143.84;79.52
6032;BME280;3044;43.232;27.972;2024-03-02T08:52:34;45195.69;;;-143.84;78.74
6032;BME280;3044;43.232;27.972;2024-03-02T08:55:03;45203.31;;;-143.84;78.46
6032;BME280;3044;43.232;27.972;2024-03-02T08:57:30;45201.41;;;-143.84;78.22
6032;BME280;3044;43.232;27.972;2024-03-02T08:59:58;45178.56;;;-143.84;77.43
6032;BME280;3044;43.232;27.972;2024-03-02T09:02:26;45224.25;;;-143.84;77.91
6032;BME280;3044;43.232;27.972;2024-03-02T09:04:53;45199.50;;;-143.84;75.89
6032;BME280;3044;43.232;27.972;2024-03-02T09:07:21;45199.50;;;-143.84;74.70
6032;BME280;3044;43.232;27.972;2024-03-02T09:09:48;45197.59;;;-143.84;75.23
6032;BME280;3044;43.232;27.972;2024-03-02T09:12:16;45174.75;;;-143.84;73.61
6032;BME280;3044;43.232;27.972;2024-03-02T09:14:43;45176.66;;;-143.84;72.39
6032;BME280;3044;43.232;27.972;2024-03-02T09:17:11;45172.84;;;-143.84;71.69
6032;BME280;3044;43.232;27.972;2024-03-02T09:19:39;45207.13;;;-143.84;70.83
6032;BME280;3044;43.232;27.972;2024-03-02T09:22:06;45201.41;;;-143.84;71.25
6032;BME280;3044;43.232;27.972;2024-03-02T09:24:33;45189.97;;;-143.84;69.04
6032;BME280;3044;43.232;27.972;2024-03-02T09:27:00;45163.31;;;-143.84;68.26
6032;BME280;3044;43.232;27.972;2024-03-02T09:29:29;45170.94;;;-143.84;66.78
6032;BME280;3044;43.232;27.972;2024-03-02T09:31:56;45169.03;;;-143.84;65.85
6032;BME280;3044;43.232;27.972;2024-03-02T09:34:23;45170.94;;;-143.84;65.73
6032;BME280;3044;43.232;27.972;2024-03-02T09:36:51;45184.25;;;-143.84;65.63
6032;BME280;3044;43.232;27.972;2024-03-02T09:39:18;45201.41;;;-143.84;66.51
6032;BME280;3044;43.232;27.972;2024-03-02T09:41:45;45180.47;;;-143.84;65.71
6032;BME280;3044;43.232;27.972;2024-03-02T09:44:14;45170.94;;;-143.84;66.48
6032;BME280;3044;43.232;27.972;2024-03-02T09:46:43;45189.97;;;-143.84;67.43
6032;BME280;3044;43.232;27.972;2024-03-02T09:49:10;45197.59;;;-143.84;68.41
6032;BME280;3044;43.232;27.972;2024-03-02T09:51:37;45182.38;;;-143.84;68.08
6032;BME280;3044;43.232;27.972;2024-03-02T09:54:07;45191.88;;;-143.84;68.75
6032;BME280;3044;43.232;27.972;2024-03-02T09:56:34;45178.56;;;-143.84;66.34
6032;BME280;3044;43.232;27.972;2024-03-02T09:59:02;45174.75;;;-143.84;66.70
6032;BME280;3044;43.232;27.972;2024-03-02T10:01:29;45157.59;;;-143.84;66.79
6032;BME280;3044;43.232;27.972;2024-03-02T10:03:59;45197.59;;;-143.84;67.55
6032;BME280;3044;43.232;27.972;2024-03-02T10:06:27;45193.78;;;-143.84;67.19
6032;BME280;3044;43.232;27.972;2024-03-02T10:08:55;45186.16;;;-143.84;67.69
6032;BME280;3044;43.232;27.972;2024-03-02T10:11:26;45157.59;;;-143.84;65.90
6032;BME280;3044;43.232;27.972;2024-03-02T10:14:13;45176.66;;;-143.84;66.73
6032;BME280;3044;43.232;27.972;2024-03-02T10:16:41;45186.16;;;-143.84;66.50
6032;BME280;3044;43.232;27.972;2024-03-02T10:19:19;45197.59;;;-143.84;66.16
6032;BME280;3044;43.232;27.972;2024-03-02T10:21:47;45191.88;;;-143.84;65.93
6032;BME280;3044;43.232;27.972;2024-03-02T10:24:15;45157.59;;;-143.84;66.94
6032;BME280;3044;43.232;27.972;2024-03-02T10:26:42;45186.16;;;-143.84;67.03
6032;BME280;3044;43.232;27.972;2024-03-02T10:29:09;45161.41;;;-143.84;67.82
6032;BME280;3044;43.232;27.972;2024-03-02T10:31:37;45180.47;;;-143.84;68.01
6032;BME280;3044;43.232;27.972;2024-03-02T10:34:05;45189.97;;;-143.84;68.29
6032;BME280;3044;43.232;27.972;2024-03-02T10:36:34;45167.13;;;-143.84;67.23
6032;BME280;3044;43.232;27.972;2024-03-02T10:39:02;45188.06;;;-143.84;68.06
6032;BME280;3044;43.232;27.972;2024-03-02T10:41:32;45170.94;;;-143.84;68.59
6032;BME280;3044;43.232;27.972;2024-03-02T10:44:02;45203.31;;;-143.84;68.81
6032;BME280;3044;43.232;27.972;2024-03-02T10:46:30;45176.66;;;-143.84;68.68
6032;BME280;3044;43.232;27.972;2024-03-02T10:48:58;45203.31;;;-143.84;68.48
6032;BME280;3044;43.232;27.972;2024-03-02T10:51:26;45167.13;;;-143.84;67.87
6032;BME280;3044;43.232;27.972;2024-03-02T10:53:59;45174.75;;;-143.84;67.78
6032;BME280;3044;43.232;27.972;2024-03-02T10:56:28;45180.47;;;-143.84;66.81
6032;BME280;3044;43.232;27.972;2024-03-02T10:59:03;45170.94;;;-143.84;66.93
6032;BME280;3044;43.232;27.972;2024-03-02T11:01:34;45184.25;;;-143.84;66.86
6032;BME280;3044;43.232;27.972;2024-03-02T11:04:02;45174.75;;;-143.84;67.04
6032;BME280;3044;43.232;27.972;2024-03-02T11:06:32;45193.78;;;-143.84;68.01
6032;BME280;3044;43.232;27.972;2024-03-02T11:09:07;45172.84;;;-143.84;67.64
6032;BME280;3044;43.232;27.972;2024-03-02T11:11:37;45159.50;;;-143.84;67.47
6032;BME280;3044;43.232;27.972;2024-03-02T11:14:12;45169.03;;;-143.84;67.16
6032;BME280;3044;43.232;27.972;2024-03-02T11:16:40;45170.94;;;-143.84;67.59
6032;BME280;3044;43.232;27.972;2024-03-02T11:19:10;45178.56;;;-143.84;66.82
6032;BME280;3044;43.232;27.972;2024-03-02T11:21:38;45188.06;;;-143.84;67.01
6032;BME280;3044;43.232;27.972;2024-03-02T11:24:32;45180.47;;;-143.84;66.60
6032;BME280;3044;43.232;27.972;2024-03-02T11:27:00;45174.75;;;-143.84;67.03
6032;BME280;3044;43.232;27.972;2024-03-02T11:29:48;45176.66;;;-143.84;66.48
6032;BME280;3044;43.232;27.972;2024-03-02T11:32:17;45189.97;;;-143.84;65.68
6032;BME280;3044;43.232;27.972;2024-03-02T11:34:46;45186.16;;;-143.84;66.42
6032;BME280;3044;43.232;27.972;2024-03-02T11:37:15;45193.78;;;-143.84;66.79
6032;BME280;3044;43.232;27.972;2024-03-02T11:39:45;45203.31;;;-143.84;67.83
6032;BME280;3044;43.232;27.972;2024-03-02T11:42:14;45203.31;;;-143.84;68.04
6032;BME280;3044;43.232;27.972;2024-03-02T11:44:43;45188.06;;;-143.84;68.55
6032;BME280;3044;43.232;27.972;2024-03-02T11:47:12;45191.88;;;-143.84;68.69
6032;BME280;3044;43.232;27.972;2024-03-02T11:49:44;45209.03;;;-143.84;69.13
6032;BME280;3044;43.232;27.972;2024-03-02T11:52:13;45197.59;;;-143.84;68.98
6032;BME280;3044;43.232;27.972;2024-03-02T11:54:41;45176.66;;;-143.84;68.59
6032;BME280;3044;43.232;27.972;2024-03-02T11:57:14;45167.13;;;-143.84;69.79
6032;BME280;3044;43.232;27.972;2024-03-02T11:59:42;45188.06;;;-143.84;70.39
6032;BME280;3044;43.232;27.972;2024-03-02T12:02:15;45178.56;;;-143.84;69.71
6032;BME280;3044;43.232;27.972;2024-03-02T12:04:43;45182.38;;;-143.84;69.08
6032;BME280;3044;43.232;27.972;2024-03-02T12:07:12;45169.03;;;-143.84;69.66
6032;BME280;3044;43.232;27.972;2024-03-02T12:09:40;45193.78;;;-143.84;69.49
6032;BME280;3044;43.232;27.972;2024-03-02T12:12:08;45186.16;;;-143.84;70.51
6032;BME280;3044;43.232;27.972;2024-03-02T12:14:38;45188.06;;;-143.84;70.47
6032;BME280;3044;43.232;27.972;2024-03-02T12:17:06;45197.59;;;-143.84;70.54
6032;BME280;3044;43.232;27.972;2024-03-02T12:19:33;45193.78;;;-143.84;69.87
6032;BME280;3044;43.232;27.972;2024-03-02T12:22:00;45210.94;;;-143.84;69.23
6032;BME280;3044;43.232;27.972;2024-03-02T12:24:29;45193.78;;;-143.84;69.29
6032;BME280;3044;43.232;27.972;2024-03-02T12:26:57;45210.94;;;-143.84;69.43
6032;BME280;3044;43.232;27.972;2024-03-02T12:29:24;45199.50;;;-143.84;69.76
6032;BME280;3044;43.232;27.972;2024-03-02T12:31:53;45201.41;;;-143.84;69.26
6032;BME280;3044;43.232;27.972;2024-03-02T12:34:21;45205.22;;;-143.84;69.70
6032;BME280;3044;43.232;27.972;2024-03-02T12:36:49;45199.50;;;-143.84;69.46
6032;BME280;3044;43.232;27.972;2024-03-02T12:39:19;45169.03;;;-143.84;69.49
6032;BME280;3044;43.232;27.972;2024-03-02T12:41:49;45193.78;;;-143.84;70.08
6032;BME280;3044;43.232;27.972;2024-03-02T12:44:16;45174.75;;;-143.84;70.83
6032;BME280;3044;43.232;27.972;2024-03-02T12:46:44;45189.97;;;-143.84;70.86
6032;BME280;3044;43.232;27.972;2024-03-02T12:49:13;45189.97;;;-143.84;71.28
6032;BME280;3044;43.232;27.972;2024-03-02T12:51:42;45176.66;;;-143.84;71.65
6032;BME280;3044;43.232;27.972;2024-03-02T12:54:10;45191.88;;;-143.84;72.33
6032;BME280;3044;43.232;27.972;2024-03-02T12:56:38;45188.06;;;-143.84;73.07